createdAt,value
2023-01-19T00:00:00.838Z,0
2023-01-19T00:01:17.944Z,0
2023-01-19T00:02:35.049Z,0
2023-01-19T00:03:52.155Z,0
2023-01-19T00:05:09.260Z,0
2023-01-19T00:06:26.365Z,0
2023-01-19T00:07:43.471Z,0
2023-01-19T00:09:00.576Z,0
2023-01-19T00:10:17.682Z,0
2023-01-19T00:11:34.787Z,0
2023-01-19T00:12:51.893Z,0
2023-01-19T00:14:08.998Z,0
2023-01-19T00:15:25.119Z,0
2023-01-19T00:16:42.225Z,0
2023-01-19T00:17:59.330Z,0
2023-01-19T00:19:16.436Z,0
2023-01-19T00:20:33.541Z,0
2023-01-19T00:21:50.646Z,0
2023-01-19T00:23:07.752Z,0
2023-01-19T00:24:23.879Z,0
2023-01-19T00:25:40.000Z,0
2023-01-19T00:26:57.105Z,0
2023-01-19T00:28:14.211Z,0
2023-01-19T00:29:30.337Z,0
2023-01-19T00:30:46.459Z,0
2023-01-19T00:32:03.564Z,0
2023-01-19T00:33:20.670Z,0
2023-01-19T00:34:37.775Z,0
2023-01-19T00:35:54.880Z,0
2023-01-19T00:37:11.986Z,0
2023-01-19T00:38:29.091Z,0
2023-01-19T00:39:46.197Z,0
2023-01-19T00:41:03.302Z,0
2023-01-19T00:42:20.408Z,0
2023-01-19T00:43:37.513Z,0
2023-01-19T00:44:54.618Z,0
2023-01-19T00:46:11.724Z,0
2023-01-19T02:38:34.231Z,0
2023-01-19T02:40:20.210Z,0
2023-01-19T02:41:36.425Z,0
2023-01-19T02:42:53.592Z,0
2023-01-19T02:44:09.766Z,0
2023-01-19T02:45:25.887Z,0
2023-01-19T02:46:42.992Z,0
2023-01-19T02:48:00.098Z,0
2023-01-19T02:49:17.203Z,0
2023-01-19T02:50:34.309Z,0
2023-01-19T02:51:51.414Z,0
2023-01-19T02:53:08.520Z,0
2023-01-19T02:54:25.625Z,0
2023-01-19T02:55:42.730Z,0
2023-01-19T02:56:59.836Z,0
2023-01-19T02:58:16.941Z,0
2023-01-19T02:59:34.046Z,0
2023-01-19T03:00:51.152Z,0
2023-01-19T03:02:07.273Z,0
2023-01-19T03:03:24.378Z,0
2023-01-19T03:04:41.484Z,0
2023-01-19T03:05:58.589Z,0
2023-01-19T03:07:15.695Z,0
2023-01-19T03:08:32.800Z,0
2023-01-19T03:09:49.906Z,0
2023-01-19T03:11:06.032Z,0
2023-01-19T03:12:22.154Z,0
2023-01-19T03:13:39.259Z,0
2023-01-19T03:14:56.364Z,0
2023-01-19T03:16:13.470Z,0
2023-01-19T03:17:30.575Z,0
2023-01-19T03:18:47.681Z,0
2023-01-19T03:20:04.786Z,0
2023-01-19T03:21:21.892Z,0
2023-01-19T03:22:38.997Z,0
2023-01-19T03:23:56.103Z,0
2023-01-19T03:25:13.208Z,0
2023-01-19T03:26:30.314Z,0
2023-01-19T03:27:47.419Z,0
2023-01-19T03:29:03.541Z,0
2023-01-19T03:30:20.646Z,0
2023-01-19T03:31:37.753Z,0
2023-01-19T03:32:54.858Z,0
2023-01-19T03:34:11.963Z,0
2023-01-19T03:35:29.069Z,0
2023-01-19T03:36:46.174Z,0
2023-01-19T03:38:02.301Z,0
2023-01-19T03:39:18.422Z,0
2023-01-19T03:40:34.549Z,0
2023-01-19T03:41:50.670Z,0
2023-01-19T03:43:07.776Z,0
2023-01-19T03:44:24.881Z,0
2023-01-19T03:45:41.987Z,0
2023-01-19T03:46:59.092Z,0
2023-01-19T03:48:16.197Z,0
2023-01-19T03:49:33.303Z,0
2023-01-19T03:50:50.408Z,0
2023-01-19T03:52:07.514Z,0
2023-01-19T03:53:24.619Z,0
2023-01-19T03:54:41.725Z,0
2023-01-19T03:55:58.830Z,0
2023-01-19T03:57:15.936Z,0
2023-01-19T03:58:32.057Z,0
2023-01-19T03:59:49.163Z,0
2023-01-19T04:01:06.268Z,0
2023-01-19T04:02:23.374Z,0
2023-01-19T04:03:40.479Z,0
2023-01-19T04:04:57.584Z,0
2023-01-19T04:06:14.690Z,0
2023-01-19T04:07:30.817Z,0
2023-01-19T04:08:46.938Z,0
2023-01-19T04:10:03.065Z,0
2023-01-19T04:11:19.184Z,0
2023-01-19T04:12:36.290Z,0
2023-01-19T04:13:53.395Z,0
2023-01-19T04:15:10.500Z,0
2023-01-19T04:16:27.606Z,0
2023-01-19T04:17:44.711Z,0
2023-01-19T04:19:01.816Z,0
2023-01-19T04:20:18.922Z,0
2023-01-19T04:21:36.028Z,0
2023-01-19T04:22:53.133Z,0
2023-01-19T04:24:10.238Z,0
2023-01-19T04:25:27.344Z,0
2023-01-19T04:26:44.449Z,0
2023-01-19T04:28:00.571Z,0
2023-01-19T04:29:17.676Z,0
2023-01-19T04:30:34.781Z,0
2023-01-19T04:31:51.887Z,0
2023-01-19T04:33:08.993Z,0
2023-01-19T04:34:26.098Z,0
2023-01-19T04:35:43.204Z,0
2023-01-19T04:36:59.330Z,0
2023-01-19T04:38:15.452Z,0
2023-01-19T04:39:31.578Z,0
2023-01-19T04:40:47.700Z,0
2023-01-19T04:42:04.805Z,0
2023-01-19T04:43:21.911Z,0
2023-01-19T04:44:39.016Z,0
2023-01-19T04:45:56.122Z,0
2023-01-19T04:47:13.227Z,0
2023-01-19T04:48:30.333Z,0
2023-01-19T04:49:47.438Z,0
2023-01-19T04:51:04.544Z,0
2023-01-19T04:52:21.649Z,0
2023-01-19T04:53:38.754Z,0
2023-01-19T04:54:55.860Z,0
2023-01-19T04:56:12.965Z,0
2023-01-19T04:57:29.087Z,0
2023-01-19T04:58:46.192Z,0
2023-01-19T05:00:03.298Z,0
2023-01-19T05:01:20.403Z,0
2023-01-19T05:02:37.509Z,0
2023-01-19T05:03:54.614Z,0
2023-01-19T05:05:11.719Z,0
2023-01-19T05:06:27.846Z,0
2023-01-19T05:07:43.967Z,0
2023-01-19T05:09:01.073Z,0
2023-01-19T05:10:17.199Z,0
2023-01-19T05:11:33.321Z,0
2023-01-19T05:12:50.426Z,0
2023-01-19T05:14:07.532Z,0
2023-01-19T05:15:24.638Z,0
2023-01-19T05:16:41.743Z,0
2023-01-19T05:17:58.848Z,0
2023-01-19T05:19:15.954Z,0
2023-01-19T05:20:33.059Z,0
2023-01-19T05:21:50.165Z,0
2023-01-19T05:23:07.270Z,0
2023-01-19T05:24:24.375Z,0
2023-01-19T05:25:41.481Z,0
2023-01-19T05:26:58.587Z,0
2023-01-19T05:28:14.708Z,0
2023-01-19T05:29:31.813Z,0
2023-01-19T05:30:48.920Z,0
2023-01-19T05:32:06.025Z,0
2023-01-19T05:33:23.131Z,0
2023-01-19T05:34:40.236Z,0
2023-01-19T05:35:57.341Z,0
2023-01-19T05:37:13.468Z,0
2023-01-19T05:38:29.590Z,0
2023-01-19T05:39:45.716Z,0
2023-01-19T05:41:01.838Z,0
2023-01-19T05:42:18.943Z,0
2023-01-19T05:43:36.048Z,0
2023-01-19T05:44:53.154Z,0
2023-01-19T05:46:10.259Z,0
2023-01-19T05:47:27.364Z,0
2023-01-19T05:48:44.470Z,0
2023-01-19T05:50:01.575Z,0
2023-01-19T05:51:18.681Z,0
2023-01-19T05:52:35.786Z,0
2023-01-19T05:53:52.892Z,0
2023-01-19T05:55:09.997Z,0
2023-01-19T05:56:27.103Z,0
2023-01-19T05:57:43.224Z,0
2023-01-19T05:59:00.329Z,0
2023-01-19T06:00:17.435Z,0
2023-01-19T06:01:34.540Z,0
2023-01-19T06:02:51.646Z,0
2023-01-19T06:04:08.751Z,0
2023-01-19T06:05:25.857Z,0
2023-01-19T06:06:42.962Z,0
2023-01-19T06:08:00.068Z,0
2023-01-19T06:09:17.173Z,0
2023-01-19T06:10:34.278Z,0
2023-01-19T06:11:50.405Z,0
2023-01-19T06:13:06.527Z,0
2023-01-19T06:14:22.653Z,4
2023-01-19T06:15:38.775Z,4
2023-01-19T06:16:55.880Z,0
2023-01-19T06:18:12.986Z,4
2023-01-19T06:19:30.091Z,4
2023-01-19T06:20:47.197Z,0
2023-01-19T06:22:04.302Z,0
2023-01-19T06:23:21.408Z,0
2023-01-19T06:24:38.513Z,0
2023-01-19T06:25:55.619Z,0
2023-01-19T06:27:12.724Z,0
2023-01-19T06:28:29.829Z,0
2023-01-19T06:29:46.935Z,0
2023-01-19T06:31:04.041Z,0
2023-01-19T06:32:20.162Z,0
2023-01-19T06:33:37.268Z,0
2023-01-19T06:34:54.373Z,0
2023-01-19T06:36:11.478Z,0
2023-01-19T06:37:28.584Z,0
2023-01-19T06:38:45.689Z,0
2023-01-19T06:40:02.795Z,0
2023-01-19T06:41:18.921Z,0
2023-01-19T06:42:35.043Z,0
2023-01-19T06:43:51.170Z,0
2023-01-19T06:45:07.291Z,0
2023-01-19T06:46:24.397Z,4
2023-01-19T06:47:41.503Z,4
2023-01-19T06:48:58.608Z,4
2023-01-19T06:50:15.714Z,4
2023-01-19T06:51:32.819Z,4
2023-01-19T06:52:49.925Z,8
2023-01-19T06:54:07.030Z,12
2023-01-19T06:55:24.135Z,8
2023-01-19T06:56:41.242Z,12
2023-01-19T06:57:57.364Z,12
2023-01-19T06:59:14.469Z,12
2023-01-19T07:00:31.575Z,16
2023-01-19T07:01:48.680Z,16
2023-01-19T07:03:05.786Z,12
2023-01-19T07:04:22.891Z,16
2023-01-19T07:05:39.997Z,16
2023-01-19T07:06:57.102Z,16
2023-01-19T07:08:14.208Z,20
2023-01-19T07:09:31.314Z,24
2023-01-19T07:10:48.420Z,24
2023-01-19T07:12:05.526Z,28
2023-01-19T07:13:22.631Z,28
2023-01-19T07:14:38.753Z,32
2023-01-19T07:15:55.858Z,36
2023-01-19T07:17:12.964Z,32
2023-01-19T07:18:30.069Z,40
2023-01-19T07:19:47.175Z,44
2023-01-19T07:21:04.280Z,52
2023-01-19T07:22:21.386Z,60
2023-01-19T07:23:38.491Z,60
2023-01-19T07:24:55.597Z,60
2023-01-19T07:26:12.702Z,60
2023-01-19T07:27:29.808Z,60
2023-01-19T07:28:46.913Z,68
2023-01-19T07:30:04.019Z,84
2023-01-19T07:31:20.141Z,88
2023-01-19T07:32:37.246Z,100
2023-01-19T07:33:54.352Z,108
2023-01-19T07:35:11.457Z,116
2023-01-19T07:36:28.563Z,136
2023-01-19T07:37:45.668Z,152
2023-01-19T07:39:02.774Z,156
2023-01-19T07:40:19.879Z,140
2023-01-19T07:41:36.985Z,144
2023-01-19T07:42:54.090Z,140
2023-01-19T07:44:11.196Z,144
2023-01-19T07:45:28.301Z,144
2023-01-19T07:46:45.407Z,148
2023-01-19T07:48:01.528Z,164
2023-01-19T07:49:18.634Z,172
2023-01-19T07:50:35.739Z,192
2023-01-19T07:51:52.845Z,204
2023-01-19T07:53:09.950Z,212
2023-01-19T07:54:26.077Z,220
2023-01-19T07:55:42.199Z,212
2023-01-19T07:56:58.326Z,208
2023-01-19T07:58:14.447Z,216
2023-01-19T07:59:31.553Z,216
2023-01-19T08:00:48.658Z,220
2023-01-19T08:02:05.764Z,228
2023-01-19T08:03:22.869Z,244
2023-01-19T08:04:39.974Z,248
2023-01-19T08:05:57.080Z,260
2023-01-19T08:07:14.185Z,280
2023-01-19T08:08:31.291Z,288
2023-01-19T08:09:48.396Z,296
2023-01-19T08:11:05.502Z,300
2023-01-19T08:12:22.607Z,304
2023-01-19T08:13:39.713Z,324
2023-01-19T08:14:55.834Z,340
2023-01-19T08:16:12.939Z,344
2023-01-19T08:17:30.045Z,356
2023-01-19T08:18:47.150Z,360
2023-01-19T08:20:04.255Z,352
2023-01-19T08:21:21.361Z,344
2023-01-19T08:22:38.466Z,348
2023-01-19T08:23:54.593Z,352
2023-01-19T08:25:10.714Z,384
2023-01-19T08:26:27.820Z,420
2023-01-19T08:27:44.925Z,472
2023-01-19T08:29:01.052Z,536
2023-01-19T08:30:17.174Z,604
2023-01-19T08:31:34.279Z,672
2023-01-19T08:32:51.384Z,740
2023-01-19T08:34:08.489Z,848
2023-01-19T08:35:25.595Z,1004
2023-01-19T08:36:42.701Z,1224
2023-01-19T08:37:59.806Z,1432
2023-01-19T08:39:16.912Z,1768
2023-01-19T08:40:34.017Z,2004
2023-01-19T08:41:51.122Z,2132
2023-01-19T08:43:08.227Z,2184
2023-01-19T08:44:25.333Z,2308
2023-01-19T08:45:42.438Z,2452
2023-01-19T08:46:58.560Z,2700
2023-01-19T08:48:15.665Z,2780
2023-01-19T08:49:32.771Z,3024
2023-01-19T08:50:49.876Z,2988
2023-01-19T08:52:06.982Z,3036
2023-01-19T08:53:24.087Z,3324
2023-01-19T08:54:41.192Z,3464
2023-01-19T08:55:57.319Z,3368
2023-01-19T08:57:13.441Z,3340
2023-01-19T08:58:29.567Z,3316
2023-01-19T08:59:45.689Z,3192
2023-01-19T09:01:02.794Z,2928
2023-01-19T09:02:19.900Z,2616
2023-01-19T09:03:37.006Z,2520
2023-01-19T09:04:54.111Z,2352
2023-01-19T09:06:11.216Z,2268
2023-01-19T09:07:28.322Z,2260
2023-01-19T09:08:45.427Z,2268
2023-01-19T09:10:02.532Z,2200
2023-01-19T09:11:19.638Z,2160
2023-01-19T09:12:36.743Z,2092
2023-01-19T09:13:53.849Z,2036
2023-01-19T09:15:10.954Z,1992
2023-01-19T09:16:27.076Z,2008
2023-01-19T09:17:44.181Z,1976
2023-01-19T09:19:01.286Z,2032
2023-01-19T09:20:18.391Z,2080
2023-01-19T09:21:35.497Z,2100
2023-01-19T09:22:52.602Z,2208
2023-01-19T09:24:09.708Z,2316
2023-01-19T09:25:25.834Z,2224
2023-01-19T09:26:41.956Z,2020
2023-01-19T09:27:59.061Z,2048
2023-01-19T09:29:16.166Z,2152
2023-01-19T09:30:32.293Z,2292
2023-01-19T09:31:48.414Z,2396
2023-01-19T09:33:05.520Z,2308
2023-01-19T09:34:22.625Z,2108
2023-01-19T09:35:39.730Z,2332
2023-01-19T09:36:56.837Z,2700
2023-01-19T09:38:13.942Z,2508
2023-01-19T09:39:31.048Z,2112
2023-01-19T09:40:48.153Z,2056
2023-01-19T09:42:05.259Z,1884
2023-01-19T09:43:22.364Z,1740
2023-01-19T09:44:39.469Z,1660
2023-01-19T09:45:56.575Z,1540
2023-01-19T09:47:13.680Z,1472
2023-01-19T09:48:29.801Z,1448
2023-01-19T09:49:46.907Z,1448
2023-01-19T09:51:04.012Z,1504
2023-01-19T09:52:21.117Z,1640
2023-01-19T09:53:38.223Z,1620
2023-01-19T09:54:55.328Z,1716
2023-01-19T09:56:12.433Z,1768
2023-01-19T09:57:28.560Z,1776
2023-01-19T09:58:44.681Z,1704
2023-01-19T10:00:00.808Z,1680
2023-01-19T10:01:16.930Z,1700
2023-01-19T10:02:34.035Z,1736
2023-01-19T10:03:51.140Z,1700
2023-01-19T10:05:08.246Z,1612
2023-01-19T10:06:25.351Z,1552
2023-01-19T10:07:42.457Z,1624
2023-01-19T10:08:59.562Z,1536
2023-01-19T10:10:16.667Z,1532
2023-01-19T10:11:33.773Z,1708
2023-01-19T10:12:50.878Z,1884
2023-01-19T10:14:07.983Z,2060
2023-01-19T10:15:25.089Z,2292
2023-01-19T10:16:42.194Z,2328
2023-01-19T10:17:58.316Z,2304
2023-01-19T10:19:15.421Z,2228
2023-01-19T10:20:32.526Z,1976
2023-01-19T10:21:49.631Z,1840
2023-01-19T10:23:06.737Z,1960
2023-01-19T10:24:23.842Z,2020
2023-01-19T10:25:40.947Z,1992
2023-01-19T10:26:57.074Z,2016
2023-01-19T10:28:13.195Z,2228
2023-01-19T10:29:30.300Z,2372
2023-01-19T10:30:46.426Z,2244
2023-01-19T10:32:02.548Z,1828
2023-01-19T10:33:19.653Z,1580
2023-01-19T10:34:36.758Z,1660
2023-01-19T10:35:53.864Z,1784
2023-01-19T10:37:10.969Z,1868
2023-01-19T10:38:28.074Z,1920
2023-01-19T10:39:45.179Z,1972
2023-01-19T10:41:02.284Z,1928
2023-01-19T10:42:19.389Z,2092
2023-01-19T10:43:36.495Z,2108
2023-01-19T10:44:53.600Z,1900
2023-01-19T10:46:10.705Z,1836
2023-01-19T10:47:27.810Z,1864
2023-01-19T10:48:43.932Z,1908
2023-01-19T10:50:01.037Z,1904
2023-01-19T10:51:18.142Z,1900
2023-01-19T10:52:35.247Z,1816
2023-01-19T10:53:52.352Z,1884
2023-01-19T10:55:09.458Z,1992
2023-01-19T10:56:26.563Z,2304
2023-01-19T10:57:42.689Z,2504
2023-01-19T10:58:58.811Z,2428
2023-01-19T11:00:15.915Z,2216
2023-01-19T11:01:33.020Z,2412
2023-01-19T11:02:49.147Z,2576
2023-01-19T11:04:05.268Z,2556
2023-01-19T11:05:22.373Z,2172
2023-01-19T11:06:39.478Z,1968
2023-01-19T11:07:56.583Z,2024
2023-01-19T11:09:13.688Z,2084
2023-01-19T11:10:30.792Z,2200
2023-01-19T11:11:47.897Z,2124
2023-01-19T11:13:05.002Z,2236
2023-01-19T11:14:22.107Z,2512
2023-01-19T11:15:38.228Z,2512
2023-01-19T11:16:55.333Z,2576
2023-01-19T11:18:12.438Z,2456
2023-01-19T11:19:29.543Z,2716
2023-01-19T11:20:46.648Z,3340
2023-01-19T11:22:03.753Z,4056
2023-01-19T11:23:20.858Z,3920
2023-01-19T11:24:37.963Z,3804
2023-01-19T11:25:55.068Z,3792
2023-01-19T11:27:12.173Z,3976
2023-01-19T11:28:29.278Z,4004
2023-01-19T11:29:45.404Z,3608
2023-01-19T11:31:01.525Z,3464
2023-01-19T11:32:17.652Z,3560
2023-01-19T11:33:33.773Z,3440
2023-01-19T11:34:50.878Z,3256
2023-01-19T11:36:07.983Z,3396
2023-01-19T11:37:25.088Z,3784
2023-01-19T11:38:42.193Z,3400
2023-01-19T11:39:59.298Z,3280
2023-01-19T11:41:16.403Z,4048
2023-01-19T11:42:33.508Z,4604
2023-01-19T11:43:50.613Z,4392
2023-01-19T11:45:07.718Z,3936
2023-01-19T11:46:24.823Z,3452
2023-01-19T11:47:41.928Z,3320
2023-01-19T11:48:59.033Z,3260
2023-01-19T11:50:15.154Z,3640
2023-01-19T11:51:32.259Z,4172
2023-01-19T11:52:49.364Z,4884
2023-01-19T11:54:06.469Z,5428
2023-01-19T11:55:23.574Z,5008
2023-01-19T11:56:40.679Z,4428
2023-01-19T11:57:57.784Z,3864
2023-01-19T11:59:13.910Z,3608
2023-01-19T12:00:30.031Z,3788
2023-01-19T12:01:46.158Z,3952
2023-01-19T12:03:02.279Z,4216
2023-01-19T12:04:19.384Z,4040
2023-01-19T12:05:36.489Z,3892
2023-01-19T12:06:53.592Z,3644
2023-01-19T12:08:10.697Z,3596
2023-01-19T12:09:27.802Z,3340
2023-01-19T12:10:44.908Z,3428
2023-01-19T12:12:02.013Z,3436
2023-01-19T12:13:19.118Z,3268
2023-01-19T12:14:36.223Z,2976
2023-01-19T12:15:53.328Z,2912
2023-01-19T12:17:10.433Z,2884
2023-01-19T12:18:27.538Z,2784
2023-01-19T12:19:43.659Z,2848
2023-01-19T12:21:00.764Z,2880
2023-01-19T12:22:17.869Z,3112
2023-01-19T12:23:34.974Z,2916
2023-01-19T12:24:52.079Z,2524
2023-01-19T12:26:09.185Z,2420
2023-01-19T12:27:26.290Z,2552
2023-01-19T12:28:42.416Z,2236
2023-01-19T12:29:58.537Z,2140
2023-01-19T12:31:15.642Z,2236
2023-01-19T12:32:32.747Z,2432
2023-01-19T12:33:48.873Z,2400
2023-01-19T12:35:04.994Z,2156
2023-01-19T12:36:22.099Z,1844
2023-01-19T12:37:39.204Z,1536
2023-01-19T12:38:56.309Z,1552
2023-01-19T12:40:13.415Z,1972
2023-01-19T12:41:30.520Z,2136
2023-01-19T12:42:47.625Z,2136
2023-01-19T12:44:04.730Z,2316
2023-01-19T12:45:21.835Z,2384
2023-01-19T12:46:38.940Z,2480
2023-01-19T12:47:56.045Z,2492
2023-01-19T12:49:13.150Z,2856
2023-01-19T12:50:30.255Z,3232
2023-01-19T12:51:46.376Z,3056
2023-01-19T12:53:03.481Z,3160
2023-01-19T12:54:20.586Z,3088
2023-01-19T12:55:37.691Z,2880
2023-01-19T12:56:54.796Z,2660
2023-01-19T12:58:11.901Z,2348
2023-01-19T12:59:29.006Z,2436
2023-01-19T13:00:45.132Z,2736
2023-01-19T13:02:01.253Z,2672
2023-01-19T13:03:18.358Z,2812
2023-01-19T13:04:34.484Z,2704
2023-01-19T13:05:50.605Z,2456
2023-01-19T13:07:07.710Z,2640
2023-01-19T13:08:24.816Z,3008
2023-01-19T13:09:41.921Z,3144
2023-01-19T13:10:59.024Z,3040
2023-01-19T13:12:16.129Z,2852
2023-01-19T13:13:33.234Z,2860
2023-01-19T13:14:50.337Z,2772
2023-01-19T13:16:07.442Z,2860
2023-01-19T13:17:24.547Z,3072
2023-01-19T13:18:41.653Z,3300
2023-01-19T13:19:58.758Z,3804
2023-01-19T13:21:15.863Z,3592
2023-01-19T13:22:31.984Z,3100
2023-01-19T13:23:49.089Z,3588
2023-01-19T13:25:06.194Z,4320
2023-01-19T13:26:23.299Z,4708
2023-01-19T13:27:40.404Z,3932
2023-01-19T13:28:57.509Z,2580
2023-01-19T13:30:14.614Z,2112
2023-01-19T13:31:31.719Z,2136
2023-01-19T13:32:48.824Z,1856
2023-01-19T13:34:05.930Z,1588
2023-01-19T13:35:23.035Z,1376
2023-01-19T13:36:39.161Z,1356
2023-01-19T13:37:55.282Z,1404
2023-01-19T13:39:12.387Z,1500
2023-01-19T13:40:28.513Z,1680
2023-01-19T13:41:44.635Z,2160
2023-01-19T13:43:01.740Z,3104
2023-01-19T13:44:18.845Z,3600
2023-01-19T13:45:35.950Z,4112
2023-01-19T13:46:53.055Z,4188
2023-01-19T13:48:10.160Z,3832
2023-01-19T13:49:27.265Z,3392
2023-01-19T13:50:44.370Z,2960
2023-01-19T13:52:01.475Z,2640
2023-01-19T13:53:18.580Z,2660
2023-01-19T13:54:35.685Z,2416
2023-01-19T13:55:52.790Z,2264
2023-01-19T13:57:09.895Z,1584
2023-01-19T13:58:26.016Z,1224
2023-01-19T13:59:43.121Z,1212
2023-01-19T14:01:00.226Z,1320
2023-01-19T14:02:17.331Z,1500
2023-01-19T14:03:34.436Z,1660
2023-01-19T14:04:51.541Z,1628
2023-01-19T14:06:08.646Z,1480
2023-01-19T14:07:24.772Z,1212
2023-01-19T14:08:40.893Z,1208
2023-01-19T14:09:57.998Z,956
2023-01-19T14:11:14.125Z,776
2023-01-19T14:12:30.246Z,688
2023-01-19T14:13:47.351Z,636
2023-01-19T14:15:04.456Z,628
2023-01-19T14:16:21.561Z,628
2023-01-19T14:17:38.666Z,644
2023-01-19T14:18:55.771Z,680
2023-01-19T14:20:12.876Z,712
2023-01-19T14:21:29.981Z,736
2023-01-19T14:22:47.086Z,832
2023-01-19T14:24:04.191Z,1088
2023-01-19T14:25:21.296Z,1240
2023-01-19T14:26:38.401Z,1508
2023-01-19T14:27:55.506Z,1712
2023-01-19T14:29:11.627Z,1596
2023-01-19T14:30:28.732Z,1780
2023-01-19T14:31:45.837Z,1968
2023-01-19T14:33:02.942Z,2164
2023-01-19T14:34:20.048Z,2224
2023-01-19T14:35:37.154Z,1640
2023-01-19T14:36:54.258Z,1204
2023-01-19T14:38:11.364Z,1004
2023-01-19T14:39:28.469Z,992
2023-01-19T14:40:45.574Z,1024
2023-01-19T14:42:02.679Z,1176
2023-01-19T14:43:19.784Z,1264
2023-01-19T14:44:35.910Z,1372
2023-01-19T14:45:52.032Z,1232
2023-01-19T14:47:08.158Z,1096
2023-01-19T14:48:24.279Z,988
2023-01-19T14:49:41.384Z,860
2023-01-19T14:50:58.489Z,784
2023-01-19T14:52:15.594Z,760
2023-01-19T14:53:32.699Z,812
2023-01-19T14:54:49.804Z,884
2023-01-19T14:56:06.909Z,900
2023-01-19T14:57:24.014Z,904
2023-01-19T14:58:41.119Z,980
2023-01-19T14:59:58.225Z,928
2023-01-19T15:01:15.330Z,880
2023-01-19T15:02:32.435Z,780
2023-01-19T15:03:49.540Z,684
2023-01-19T15:05:05.661Z,612
2023-01-19T15:06:22.766Z,600
2023-01-19T15:07:39.872Z,516
2023-01-19T15:08:56.977Z,500
2023-01-19T15:10:14.082Z,464
2023-01-19T15:11:31.188Z,464
2023-01-19T15:12:48.293Z,488
2023-01-19T15:14:05.398Z,476
2023-01-19T15:15:22.503Z,480
2023-01-19T15:16:39.608Z,472
2023-01-19T15:17:56.713Z,480
2023-01-19T15:19:13.818Z,492
2023-01-19T15:20:30.923Z,488
2023-01-19T15:21:47.044Z,492
2023-01-19T15:23:04.149Z,516
2023-01-19T15:24:21.255Z,572
2023-01-19T15:25:38.360Z,580
2023-01-19T15:26:55.465Z,544
2023-01-19T15:28:12.570Z,528
2023-01-19T15:29:29.675Z,528
2023-01-19T15:30:46.780Z,532
2023-01-19T15:32:03.883Z,548
2023-01-19T15:33:20.004Z,568
2023-01-19T15:34:37.109Z,564
2023-01-19T15:35:54.214Z,488
2023-01-19T15:37:11.319Z,396
2023-01-19T15:38:28.424Z,340
2023-01-19T15:39:45.529Z,316
2023-01-19T15:41:02.634Z,280
2023-01-19T15:42:19.739Z,236
2023-01-19T15:43:36.844Z,212
2023-01-19T15:44:53.950Z,208
2023-01-19T15:46:11.055Z,204
2023-01-19T15:47:28.160Z,192
2023-01-19T15:48:44.286Z,172
2023-01-19T15:50:00.408Z,164
2023-01-19T15:51:16.534Z,156
2023-01-19T15:52:32.655Z,140
2023-01-19T15:53:49.761Z,120
2023-01-19T15:55:06.866Z,96
2023-01-19T15:56:23.971Z,76
2023-01-19T15:57:41.076Z,56
2023-01-19T15:58:58.181Z,40
2023-01-19T16:00:15.286Z,32
2023-01-19T16:01:32.391Z,24
2023-01-19T16:02:49.496Z,24
2023-01-19T16:04:06.601Z,28
2023-01-19T16:05:23.706Z,28
2023-01-19T16:06:40.812Z,24
2023-01-19T16:07:57.917Z,20
2023-01-19T16:09:14.038Z,16
2023-01-19T16:10:31.143Z,12
2023-01-19T16:11:48.249Z,12
2023-01-19T16:13:05.354Z,8
2023-01-19T16:14:22.459Z,12
2023-01-19T16:15:39.564Z,8
2023-01-19T16:16:56.669Z,8
2023-01-19T16:18:12.795Z,8
2023-01-19T16:19:28.916Z,8
2023-01-19T16:20:46.021Z,8
2023-01-19T16:22:03.126Z,8
2023-01-19T16:23:20.231Z,4
2023-01-19T16:24:36.358Z,8
2023-01-19T16:25:52.479Z,4
2023-01-19T16:27:09.584Z,4
2023-01-19T16:28:26.689Z,4
2023-01-19T16:29:43.794Z,4
2023-01-19T16:31:00.899Z,0
2023-01-19T16:32:18.004Z,4
2023-01-19T16:33:35.110Z,4
2023-01-19T16:34:52.215Z,4
2023-01-19T16:36:09.320Z,4
2023-01-19T16:37:26.425Z,4
2023-01-19T16:38:43.530Z,4
2023-01-19T16:40:00.636Z,4
2023-01-19T16:41:17.741Z,4
2023-01-19T16:42:33.862Z,4
2023-01-19T16:43:50.967Z,4
2023-01-19T16:45:08.072Z,4
2023-01-19T16:46:25.178Z,4
2023-01-19T16:47:42.283Z,4
2023-01-19T16:48:59.388Z,4
2023-01-19T16:50:16.493Z,4
2023-01-19T16:51:33.598Z,4
2023-01-19T16:52:49.725Z,4
2023-01-19T16:54:05.846Z,4
2023-01-19T16:55:21.972Z,0
2023-01-19T16:56:38.093Z,4
2023-01-19T16:57:55.198Z,4
2023-01-19T16:59:12.304Z,0
2023-01-19T17:00:29.409Z,0
2023-01-19T17:01:46.514Z,4
2023-01-19T17:03:03.619Z,4
2023-01-19T17:04:20.724Z,0
2023-01-19T17:05:37.829Z,0
2023-01-19T17:06:54.934Z,4
2023-01-19T17:08:12.039Z,0
2023-01-19T17:09:29.144Z,4
2023-01-19T17:10:46.249Z,4
2023-01-19T17:12:03.354Z,4
2023-01-19T17:13:20.459Z,4
2023-01-19T17:14:36.581Z,0
2023-01-19T17:15:53.686Z,4
2023-01-19T17:17:10.791Z,4
2023-01-19T17:18:27.896Z,4
2023-01-19T17:19:45.001Z,4
2023-01-19T17:21:02.106Z,4
2023-01-19T17:22:18.233Z,4
2023-01-19T17:23:34.354Z,4
2023-01-19T17:24:51.459Z,0
2023-01-19T17:26:08.565Z,0
2023-01-19T17:27:24.692Z,0
2023-01-19T17:28:40.813Z,4
2023-01-19T17:29:57.918Z,4
2023-01-19T17:31:15.024Z,4
2023-01-19T17:32:32.129Z,4
2023-01-19T17:33:49.234Z,0
2023-01-19T17:35:06.339Z,0
2023-01-19T17:36:23.444Z,0
2023-01-19T17:37:40.549Z,0
2023-01-19T17:38:57.654Z,0
2023-01-19T17:40:14.760Z,0
2023-01-19T17:41:31.865Z,0
2023-01-19T17:42:48.971Z,0
2023-01-19T17:44:06.076Z,0
2023-01-19T17:45:22.197Z,0
2023-01-19T17:46:39.302Z,0
2023-01-19T17:47:56.408Z,0
2023-01-19T17:49:13.514Z,0
2023-01-19T17:50:30.619Z,0
2023-01-19T17:51:47.724Z,0
2023-01-19T17:53:04.829Z,0
2023-01-19T17:54:20.956Z,0
2023-01-19T17:55:37.077Z,0
2023-01-19T17:56:53.203Z,0
2023-01-19T17:58:09.324Z,0
2023-01-19T17:59:26.429Z,0
2023-01-19T18:00:43.535Z,0
2023-01-19T18:02:00.640Z,0
2023-01-19T18:03:17.745Z,0
2023-01-19T18:04:34.850Z,0
2023-01-19T18:05:51.955Z,0
2023-01-19T18:07:09.060Z,0
2023-01-19T18:08:26.166Z,0
2023-01-19T18:09:43.271Z,0
2023-01-19T18:11:00.376Z,0
2023-01-19T18:12:17.481Z,0
2023-01-19T18:13:34.586Z,0
2023-01-19T18:14:50.707Z,0
2023-01-19T18:16:07.812Z,0
2023-01-19T18:17:24.918Z,0
2023-01-19T18:18:42.023Z,0
2023-01-19T18:19:59.128Z,0
2023-01-19T18:21:16.233Z,0
2023-01-19T18:22:33.339Z,0
2023-01-19T18:23:49.465Z,0
2023-01-19T18:25:05.586Z,0
2023-01-19T18:26:21.713Z,0
2023-01-19T18:27:37.834Z,0
2023-01-19T18:28:54.939Z,0
2023-01-19T18:30:12.045Z,0
2023-01-19T18:31:29.150Z,0
2023-01-19T18:32:46.255Z,0
2023-01-19T18:34:03.360Z,0
2023-01-19T18:35:20.466Z,0
2023-01-19T18:36:37.571Z,0
2023-01-19T18:37:54.676Z,0
2023-01-19T18:39:11.781Z,0
2023-01-19T18:40:28.886Z,0
2023-01-19T18:41:45.992Z,0
2023-01-19T18:43:03.097Z,0
2023-01-19T18:44:19.218Z,0
2023-01-19T18:45:36.324Z,0
2023-01-19T18:46:53.429Z,0
2023-01-19T18:49:27.639Z,0
2023-01-19T18:50:44.745Z,0
2023-01-19T18:52:01.848Z,0
2023-01-19T18:53:18.953Z,0
2023-01-19T18:54:35.080Z,0
2023-01-19T18:55:51.201Z,0
2023-01-19T18:57:08.306Z,0
2023-01-19T18:58:24.433Z,0
2023-01-19T18:59:40.554Z,0
2023-01-19T19:00:57.660Z,0
2023-01-19T19:02:14.765Z,0
2023-01-19T19:03:31.871Z,0
2023-01-19T19:04:48.976Z,0
2023-01-19T19:06:06.081Z,0
2023-01-19T19:07:23.186Z,0
2023-01-19T19:08:40.292Z,0
2023-01-19T19:09:57.397Z,0
2023-01-19T19:11:14.503Z,0
2023-01-19T19:12:31.608Z,0
2023-01-19T19:13:48.714Z,0
2023-01-19T19:15:05.819Z,0
2023-01-19T19:16:21.940Z,0
2023-01-19T19:17:39.046Z,0
2023-01-19T19:18:56.151Z,0
2023-01-19T19:20:13.257Z,0
2023-01-19T19:21:30.363Z,0
2023-01-19T19:22:47.468Z,0
2023-01-19T19:24:04.574Z,0
2023-01-19T19:25:20.701Z,0
2023-01-19T19:26:36.822Z,0
2023-01-19T19:27:53.927Z,0
2023-01-19T19:29:10.054Z,0
2023-01-19T19:30:26.175Z,0
2023-01-19T19:31:43.281Z,0
2023-01-19T19:33:00.386Z,0
2023-01-19T19:34:17.492Z,0
2023-01-19T19:35:34.597Z,0
2023-01-19T19:36:51.702Z,0
2023-01-19T19:38:08.808Z,0
2023-01-19T19:39:25.913Z,0
2023-01-19T19:40:43.019Z,0
2023-01-19T19:42:00.124Z,0
2023-01-19T19:43:17.230Z,0
2023-01-19T19:44:34.335Z,0
2023-01-19T19:45:51.440Z,0
2023-01-19T19:47:07.562Z,0
2023-01-19T19:48:24.668Z,0
2023-01-19T19:49:41.773Z,0
2023-01-19T19:50:57.895Z,0
2023-01-19T19:52:15.001Z,0
2023-01-19T19:53:32.106Z,0
2023-01-19T19:54:49.211Z,0
2023-01-19T19:56:05.338Z,0
2023-01-19T19:57:21.459Z,0